Time;durP1;ratioP1;P1;durP2;ratioP2;P2;SDS_P1;SDS_P2;PMS_P1;PMS_P2;Temp;Humidity;BMP_temperature;BMP_pressure;BME280_temperature;BME280_humidity;BME280_pressure;Samples;Min_cycle;Max_cycle;Signal;HPM_P1;HPM_P2
2023/01/29 00:00:36;;;;;;;;;;;;;;;;;;5082022;28;20204;-53
2023/01/29 00:03:02;;;;;;;;;;;;;;;;;;5086488;28;20472;-53
2023/01/29 00:05:28;;;;;;;;;;;;;;;;;;5066791;28;19920;-52
2023/01/29 00:07:53;;;;;;;;;;;;;;;;;;5063367;28;19931;-54
2023/01/29 00:10:19;;;;;;;;;;;;;;;;;;5063373;28;19971;-54
2023/01/29 00:12:45;;;;;;;;;;;;;;;;;;5056086;28;20599;-52
2023/01/29 00:15:11;;;;;;;;;;;;;;;;;;5054641;28;19928;-53
2023/01/29 00:17:37;;;;;;;;;;;;;;;;;;5060627;28;20046;-52
2023/01/29 00:20:03;;;;;;;;;;;;;;;;;;5059462;28;19925;-53
2023/01/29 00:22:29;;;;;;;;;;;;;;;;;;5066612;28;19955;-54
2023/01/29 00:24:55;;;;;;;;;;;;;;;;;;5067238;28;19912;-54
2023/01/29 00:27:20;;;;;;;;;;;;;;;;;;5064941;28;21049;-53
2023/01/29 00:30:07;;;;;;;;;;;;;;;;;;5059821;28;20049;-54
2023/01/29 00:32:32;;;;;;;;;;;;;;;;;;5071957;28;20015;-52
2023/01/29 00:34:58;;;;;;;;;;;;;;;;;;5060620;28;19931;-52
2023/01/29 00:37:24;;;;;;;;;;;;;;;;;;5064419;28;20380;-54
2023/01/29 00:39:50;;;;;;;;;;;;;;;;;;5063422;28;19919;-51
2023/01/29 00:45:00;;;;;;;;;;;;;;;;;;5068066;28;20311;-53
2023/01/29 00:47:29;;;;;;;;;;;;;;;;;;5085080;28;19917;-52
2023/01/29 00:49:55;;;;;;;;;;;;;;;;;;5087187;28;19918;-53
2023/01/29 00:52:24;;;;;;;;;;;;;;;;;;5081819;28;20570;-52
2023/01/29 00:54:50;;;;;;;;;;;;;;;;;;5062593;28;19962;-51
2023/01/29 00:57:16;;;;;;;;;;;;;;;;;;5062156;28;19922;-53
2023/01/29 00:59:42;;;;;;;;;;;;;;;;;;5049727;28;19920;-54
2023/01/29 01:04:52;;;;;;;;;;;;;;;;;;5068599;28;19953;-53
2023/01/29 01:07:18;;;;;;;;;;;;;;;;;;5061639;28;19920;-53
2023/01/29 01:12:29;;;;;;;;;;;;;;;;;;5058342;28;19937;-54
2023/01/29 01:14:54;;;;;;;;;;;;;;;;;;5068751;27;19924;-54
2023/01/29 01:17:20;;;;;;;;;;;;;;;;;;5059471;27;19953;-53
2023/01/29 01:19:46;;;;;;;;;;;;;;;;;;5061757;28;20438;-54
2023/01/29 01:22:12;;;;;;;;;;;;;;;;;;5051422;28;21170;-55
2023/01/29 01:24:38;;;;;;;;;;;;;;;;;;5059756;28;20121;-54
2023/01/29 01:27:04;;;;;;;;;;;;;;;;;;5060110;28;20008;-53
2023/01/29 01:29:30;;;;;;;;;;;;;;;;;;5081343;28;20406;-52
2023/01/29 01:31:56;;;;;;;;;;;;;;;;;;5077503;28;19924;-53
2023/01/29 01:34:22;;;;;;;;;;;;;;;;;;5064356;28;20178;-51
2023/01/29 01:36:48;;;;;;;;;;;;;;;;;;5079810;28;20717;-51
2023/01/29 01:39:14;;;;;;;;;;;;;;;;;;5088877;28;20368;-51
2023/01/29 01:41:40;;;;;;;;;;;;;;;;;;5088264;28;19986;-53
2023/01/29 01:44:06;;;;;;;;;;;;;;;;;;5072830;28;19927;-51
2023/01/29 01:46:32;;;;;;;;;;;;;;;;;;5080837;28;20440;-54
2023/01/29 01:48:58;;;;;;;;;;;;;;;;;;5084149;28;20471;-51
2023/01/29 01:51:24;;;;;;;;;;;;;;;;;;5077826;28;19912;-52
2023/01/29 01:53:50;;;;;;;;;;;;;;;;;;5072764;28;19924;-53
2023/01/29 01:56:16;;;;;;;;;;;;;;;;;;5063554;28;19916;-53
2023/01/29 01:58:42;;;;;;;;;;;;;;;;;;5059197;28;19944;-51
2023/01/29 02:01:08;;;;;;;;;;;;;;;;;;5075041;28;19923;-53
2023/01/29 02:11:49;;;;;;;;;;;;;;;;;;5054847;28;20024;-53
2023/01/29 02:14:15;;;;;;;;;;;;;;;;;;5055919;28;19927;-54
2023/01/29 02:16:41;;;;;;;;;;;;;;;;;;5061515;28;19993;-52
2023/01/29 02:19:07;;;;;;;;;;;;;;;;;;5058844;28;19923;-51
2023/01/29 02:21:32;;;;;;;;;;;;;;;;;;5064498;28;20001;-54
2023/01/29 02:23:58;;;;;;;;;;;;;;;;;;5065316;28;19953;-54
2023/01/29 02:26:24;;;;;;;;;;;;;;;;;;5067173;28;19923;-51
2023/01/29 02:28:52;;;;;;;;;;;;;;;;;;5060625;28;20466;-54
2023/01/29 02:31:18;;;;;;;;;;;;;;;;;;5062491;28;19926;-54
2023/01/29 02:33:44;;;;;;;;;;;;;;;;;;5065454;28;19924;-51
2023/01/29 02:36:10;;;;;;;;;;;;;;;;;;5062834;28;19920;-53
2023/01/29 02:38:36;;;;;;;;;;;;;;;;;;5057582;28;19992;-53
2023/01/29 02:41:02;;;;;;;;;;;;;;;;;;5062469;28;20031;-52
2023/01/29 02:43:27;;;;;;;;;;;;;;;;;;5069784;28;19916;-53
2023/01/29 02:45:53;;;;;;;;;;;;;;;;;;5085394;28;19920;-52
2023/01/29 02:48:19;;;;;;;;;;;;;;;;;;5082632;28;20334;-52
2023/01/29 02:50:45;;;;;;;;;;;;;;;;;;5069820;28;19927;-51
2023/01/29 02:53:11;;;;;;;;;;;;;;;;;;5075221;28;20366;-54
2023/01/29 02:55:37;;;;;;;;;;;;;;;;;;5080850;28;19977;-51
2023/01/29 02:58:03;;;;;;;;;;;;;;;;;;5085475;28;19916;-51
2023/01/29 03:00:28;;;;;;;;;;;;;;;;;;5077934;28;19972;-53
2023/01/29 03:02:54;;;;;;;;;;;;;;;;;;5060162;28;20018;-53
2023/01/29 03:05:20;;;;;;;;;;;;;;;;;;5082980;28;19993;-51
2023/01/29 03:07:46;;;;;;;;;;;;;;;;;;5081085;28;19955;-52
2023/01/29 03:10:12;;;;;;;;;;;;;;;;;;5081831;28;19940;-51
2023/01/29 03:12:38;;;;;;;;;;;;;;;;;;5053133;28;19923;-54
2023/01/29 03:15:15;;;;;;;;;;;;;;;;;;5079005;28;19934;-53
2023/01/29 03:17:41;;;;;;;;;;;;;;;;;;5062781;28;19912;-53
2023/01/29 03:20:07;;;;;;;;;;;;;;;;;;5054733;28;19959;-53
2023/01/29 03:22:33;;;;;;;;;;;;;;;;;;5053204;28;20050;-53
2023/01/29 03:33:12;;;;;;;;;;;;;;;;;;5061492;28;19974;-53
2023/01/29 03:35:38;;;;;;;;;;;;;;;;;;5056809;28;19923;-54
2023/01/29 03:38:04;;;;;;;;;;;;;;;;;;5067220;28;19920;-54
2023/01/29 03:40:30;;;;;;;;;;;;;;;;;;5054192;28;19924;-54
2023/01/29 03:42:56;;;;;;;;;;;;;;;;;;5050794;28;22513;-51
2023/01/29 03:45:22;;;;;;;;;;;;;;;;;;5054039;28;19959;-54
2023/01/29 03:47:48;;;;;;;;;;;;;;;;;;5048802;28;19920;-52
2023/01/29 03:50:14;;;;;;;;;;;;;;;;;;5058504;28;19930;-54
2023/01/29 03:52:39;;;;;;;;;;;;;;;;;;5074657;28;19920;-53
2023/01/29 03:55:05;;;;;;;;;;;;;;;;;;5087659;27;19958;-53
2023/01/29 03:57:31;;;;;;;;;;;;;;;;;;5084647;28;19976;-53
2023/01/29 03:59:57;;;;;;;;;;;;;;;;;;5083457;28;20605;-54
2023/01/29 04:02:26;;;;;;;;;;;;;;;;;;5060338;28;19919;-54
2023/01/29 04:04:52;;;;;;;;;;;;;;;;;;5077839;28;19928;-54
2023/01/29 04:07:22;;;;;;;;;;;;;;;;;;5074694;28;20406;-52
2023/01/29 04:09:48;;;;;;;;;;;;;;;;;;5087991;28;19932;-54
2023/01/29 04:12:14;;;;;;;;;;;;;;;;;;5086192;28;19916;-53
2023/01/29 04:14:40;;;;;;;;;;;;;;;;;;5079207;28;19927;-53
2023/01/29 04:17:06;;;;;;;;;;;;;;;;;;5071209;28;19931;-53
2023/01/29 04:19:32;;;;;;;;;;;;;;;;;;5068478;28;21269;-53
2023/01/29 04:21:57;;;;;;;;;;;;;;;;;;5089646;28;20242;-52
2023/01/29 04:24:23;;;;;;;;;;;;;;;;;;5089417;28;20508;-54
2023/01/29 04:26:49;;;;;;;;;;;;;;;;;;5079440;28;20256;-53
2023/01/29 04:29:15;;;;;;;;;;;;;;;;;;5058999;28;19926;-54
2023/01/29 04:31:41;;;;;;;;;;;;;;;;;;5063464;28;19943;-54
2023/01/29 04:34:07;;;;;;;;;;;;;;;;;;5058961;28;19951;-53
2023/01/29 04:36:34;;;;;;;;;;;;;;;;;;5063722;28;21072;-53
2023/01/29 04:38:59;;;;;;;;;;;;;;;;;;5059504;27;20540;-54
2023/01/29 04:41:25;;;;;;;;;;;;;;;;;;5058271;27;19947;-53
2023/01/29 04:43:51;;;;;;;;;;;;;;;;;;5065880;28;20411;-54
2023/01/29 04:46:17;;;;;;;;;;;;;;;;;;5047672;28;20063;-52
2023/01/29 04:48:43;;;;;;;;;;;;;;;;;;5062212;28;19920;-54
2023/01/29 04:51:09;;;;;;;;;;;;;;;;;;5071178;28;19927;-53
2023/01/29 04:53:35;;;;;;;;;;;;;;;;;;5053598;28;20462;-52
2023/01/29 04:56:00;;;;;;;;;;;;;;;;;;5062330;28;19916;-51
2023/01/29 04:58:26;;;;;;;;;;;;;;;;;;5062933;28;20433;-51
2023/01/29 05:00:52;;;;;;;;;;;;;;;;;;5061088;28;19927;-54
2023/01/29 05:03:18;;;;;;;;;;;;;;;;;;5066321;28;19927;-54
2023/01/29 05:05:44;;;;;;;;;;;;;;;;;;5082661;28;19945;-53
2023/01/29 05:08:10;;;;;;;;;;;;;;;;;;5086887;28;19916;-50
2023/01/29 05:10:37;;;;;;;;;;;;;;;;;;5050573;28;20344;-52
2023/01/29 05:13:02;;;;;;;;;;;;;;;;;;5044377;28;19920;-54
2023/01/29 05:15:29;;;;;;;;;;;;;;;;;;5072897;28;21766;-53
2023/01/29 05:18:00;;;;;;;;;;;;;;;;;;5082153;28;19919;-53
2023/01/29 05:20:26;;;;;;;;;;;;;;;;;;5082463;28;19988;-53
2023/01/29 05:22:52;;;;;;;;;;;;;;;;;;5080194;28;20383;-54
2023/01/29 05:25:18;;;;;;;;;;;;;;;;;;5077827;28;19922;-52
2023/01/29 05:30:28;;;;;;;;;;;;;;;;;;5083870;27;20887;-53
2023/01/29 05:32:54;;;;;;;;;;;;;;;;;;5080831;28;19916;-53
2023/01/29 05:35:20;;;;;;;;;;;;;;;;;;5079131;28;19919;-53
2023/01/29 05:37:46;;;;;;;;;;;;;;;;;;5087704;28;19959;-54
2023/01/29 05:40:12;;;;;;;;;;;;;;;;;;5065315;28;20471;-53
2023/01/29 05:42:38;;;;;;;;;;;;;;;;;;5039736;28;19926;-53
2023/01/29 05:45:03;;;;;;;;;;;;;;;;;;5048691;28;20030;-52
2023/01/29 05:47:29;;;;;;;;;;;;;;;;;;5057323;28;20010;-55
2023/01/29 05:49:55;;;;;;;;;;;;;;;;;;5058492;28;19920;-53
2023/01/29 05:52:21;;;;;;;;;;;;;;;;;;5054367;28;20555;-54
2023/01/29 05:54:47;;;;;;;;;;;;;;;;;;5056790;28;20511;-54
2023/01/29 05:57:13;;;;;;;;;;;;;;;;;;5035825;28;20663;-54
2023/01/29 05:59:39;;;;;;;;;;;;;;;;;;5041423;28;19989;-54
2023/01/29 06:02:05;;;;;;;;;;;;;;;;;;5038641;28;20332;-52
2023/01/29 06:04:31;;;;;;;;;;;;;;;;;;5053284;28;20555;-54
2023/01/29 06:06:57;;;;;;;;;;;;;;;;;;5060818;28;19919;-53
2023/01/29 06:09:23;;;;;;;;;;;;;;;;;;5053297;28;19919;-53
2023/01/29 06:11:49;;;;;;;;;;;;;;;;;;5050483;27;19966;-51
2023/01/29 06:14:15;;;;;;;;;;;;;;;;;;5044259;28;19916;-53
2023/01/29 06:16:41;;;;;;;;;;;;;;;;;;5065471;28;20431;-50
2023/01/29 06:19:06;;;;;;;;;;;;;;;;;;5077273;28;19952;-54
2023/01/29 06:21:32;;;;;;;;;;;;;;;;;;5088971;28;19984;-53
2023/01/29 06:23:58;;;;;;;;;;;;;;;;;;5085056;28;20371;-53
2023/01/29 06:26:24;;;;;;;;;;;;;;;;;;5081313;28;19973;-52
2023/01/29 06:28:50;;;;;;;;;;;;;;;;;;5071927;28;19920;-53
2023/01/29 06:31:17;;;;;;;;;;;;;;;;;;5070439;28;21069;-52
2023/01/29 06:33:43;;;;;;;;;;;;;;;;;;5085995;28;20510;-54
2023/01/29 06:36:09;;;;;;;;;;;;;;;;;;5083563;28;20386;-53
2023/01/29 06:38:35;;;;;;;;;;;;;;;;;;5085866;28;19923;-53
2023/01/29 06:41:00;;;;;;;;;;;;;;;;;;5069537;28;19916;-51
2023/01/29 06:43:26;;;;;;;;;;;;;;;;;;5082684;28;19923;-53
2023/01/29 06:45:52;;;;;;;;;;;;;;;;;;5083404;28;19916;-52
2023/01/29 06:48:18;;;;;;;;;;;;;;;;;;5082779;28;20351;-53
2023/01/29 06:50:44;;;;;;;;;;;;;;;;;;5064608;28;19916;-54
2023/01/29 06:53:10;;;;;;;;;;;;;;;;;;5053504;28;19919;-53
2023/01/29 06:55:36;;;;;;;;;;;;;;;;;;5057038;28;19919;-52
2023/01/29 06:58:02;;;;;;;;;;;;;;;;;;5060393;28;19939;-53
2023/01/29 07:00:27;;;;;;;;;;;;;;;;;;5062328;28;19920;-54
2023/01/29 07:02:53;;;;;;;;;;;;;;;;;;5054800;28;19927;-54
2023/01/29 07:05:19;;;;;;;;;;;;;;;;;;5055893;28;20477;-52
2023/01/29 07:07:45;;;;;;;;;;;;;;;;;;5058364;28;20310;-53
2023/01/29 07:10:11;;;;;;;;;;;;;;;;;;5040556;28;19916;-53
2023/01/29 07:12:37;;;;;;;;;;;;;;;;;;5055298;28;19919;-54
2023/01/29 07:15:03;;;;;;;;;;;;;;;;;;5056648;28;20432;-53
2023/01/29 07:17:28;;;;;;;;;;;;;;;;;;5046765;28;21067;-54
2023/01/29 07:19:54;;;;;;;;;;;;;;;;;;5061781;28;20057;-54
2023/01/29 07:22:20;;;;;;;;;;;;;;;;;;5056299;28;20418;-54
2023/01/29 07:24:47;;;;;;;;;;;;;;;;;;5064550;28;19919;-53
2023/01/29 07:27:13;;;;;;;;;;;;;;;;;;5051799;28;20520;-54
2023/01/29 07:29:39;;;;;;;;;;;;;;;;;;5054059;28;19958;-54
2023/01/29 07:32:04;;;;;;;;;;;;;;;;;;5067220;28;19923;-54
2023/01/29 07:34:30;;;;;;;;;;;;;;;;;;5066306;28;20311;-52
2023/01/29 07:36:56;;;;;;;;;;;;;;;;;;5046074;28;19945;-52
2023/01/29 07:39:22;;;;;;;;;;;;;;;;;;5075547;28;19912;-53
2023/01/29 07:41:48;;;;;;;;;;;;;;;;;;5074358;28;19955;-53
2023/01/29 07:44:14;;;;;;;;;;;;;;;;;;5072073;28;19920;-54
2023/01/29 07:46:40;;;;;;;;;;;;;;;;;;5068149;28;20496;-53
2023/01/29 07:49:05;;;;;;;;;;;;;;;;;;5064874;28;19920;-53
2023/01/29 07:51:31;;;;;;;;;;;;;;;;;;5067400;28;19968;-53
2023/01/29 07:53:57;;;;;;;;;;;;;;;;;;5064622;28;19972;-52
2023/01/29 07:56:23;;;;;;;;;;;;;;;;;;5051541;28;21438;-52
2023/01/29 07:58:49;;;;;;;;;;;;;;;;;;5076181;28;20014;-54
2023/01/29 08:01:15;;;;;;;;;;;;;;;;;;5070113;28;19920;-52
2023/01/29 08:03:41;;;;;;;;;;;;;;;;;;5070064;28;20275;-52
2023/01/29 08:06:06;;;;;;;;;;;;;;;;;;5074485;28;19920;-54
2023/01/29 08:08:32;;;;;;;;;;;;;;;;;;5054167;28;19920;-52
2023/01/29 08:10:58;;;;;;;;;;;;;;;;;;5048935;28;20003;-54
2023/01/29 08:13:24;;;;;;;;;;;;;;;;;;5054534;28;20572;-55
2023/01/29 08:15:50;;;;;;;;;;;;;;;;;;5057285;28;19924;-55
2023/01/29 08:18:16;;;;;;;;;;;;;;;;;;5051880;28;20226;-52
2023/01/29 08:20:42;;;;;;;;;;;;;;;;;;5045872;28;20505;-53
2023/01/29 08:23:07;;;;;;;;;;;;;;;;;;5062528;28;20558;-54
2023/01/29 08:25:33;;;;;;;;;;;;;;;;;;5052653;28;19923;-56
2023/01/29 08:27:59;;;;;;;;;;;;;;;;;;5042791;28;19926;-52
2023/01/29 08:30:25;;;;;;;;;;;;;;;;;;5042206;28;19926;-54
2023/01/29 08:32:51;;;;;;;;;;;;;;;;;;5043242;28;20478;-53
2023/01/29 08:35:17;;;;;;;;;;;;;;;;;;5049466;28;19931;-53
2023/01/29 08:37:43;;;;;;;;;;;;;;;;;;5060355;28;21672;-53
2023/01/29 08:40:11;;;;;;;;;;;;;;;;;;5055263;28;19920;-54
2023/01/29 08:42:36;;;;;;;;;;;;;;;;;;5065508;28;20383;-53
2023/01/29 08:45:02;;;;;;;;;;;;;;;;;;5062330;28;19920;-52
2023/01/29 08:47:28;;;;;;;;;;;;;;;;;;5074688;28;19920;-53
2023/01/29 08:49:54;;;;;;;;;;;;;;;;;;5077167;28;20470;-52
2023/01/29 08:52:20;;;;;;;;;;;;;;;;;;5073499;28;19920;-54
2023/01/29 08:54:46;;;;;;;;;;;;;;;;;;5087442;28;19924;-53
2023/01/29 08:57:12;;;;;;;;;;;;;;;;;;5087804;28;19912;-53
2023/01/29 08:59:38;;;;;;;;;;;;;;;;;;5086849;28;20420;-53
2023/01/29 09:02:04;;;;;;;;;;;;;;;;;;5074711;28;20454;-53
2023/01/29 09:04:30;;;;;;;;;;;;;;;;;;5073472;28;19927;-54
2023/01/29 09:06:56;;;;;;;;;;;;;;;;;;5077527;28;19920;-52
2023/01/29 09:09:21;;;;;;;;;;;;;;;;;;5064285;28;19996;-52
2023/01/29 09:11:47;;;;;;;;;;;;;;;;;;5078846;28;19919;-54
2023/01/29 09:14:13;;;;;;;;;;;;;;;;;;5080930;28;20873;-52
2023/01/29 09:16:39;;;;;;;;;;;;;;;;;;5080538;28;19916;-53
2023/01/29 09:19:05;;;;;;;;;;;;;;;;;;5063484;28;20822;-52
2023/01/29 09:21:31;;;;;;;;;;;;;;;;;;5055565;28;19941;-52
2023/01/29 09:23:57;;;;;;;;;;;;;;;;;;5052700;28;20424;-52
2023/01/29 09:26:23;;;;;;;;;;;;;;;;;;5058817;28;20398;-55
2023/01/29 09:28:49;;;;;;;;;;;;;;;;;;5055635;28;20000;-53
2023/01/29 09:31:14;;;;;;;;;;;;;;;;;;5054231;28;19927;-54
2023/01/29 09:33:40;;;;;;;;;;;;;;;;;;5053129;28;20391;-53
2023/01/29 09:36:06;;;;;;;;;;;;;;;;;;5055617;28;20231;-55
2023/01/29 09:38:32;;;;;;;;;;;;;;;;;;5049294;28;19959;-53
2023/01/29 09:40:58;;;;;;;;;;;;;;;;;;5060245;28;19933;-53
2023/01/29 09:43:24;;;;;;;;;;;;;;;;;;5061752;28;19916;-55
2023/01/29 09:45:50;;;;;;;;;;;;;;;;;;5067536;28;20366;-54
2023/01/29 09:48:16;;;;;;;;;;;;;;;;;;5058799;28;19923;-52
2023/01/29 09:50:41;;;;;;;;;;;;;;;;;;5047085;28;19923;-55
2023/01/29 09:53:09;;;;;;;;;;;;;;;;;;5059742;27;20435;-52
2023/01/29 10:03:19;;;;;;;;;;;;;;;;;;4996162;22;19935;-54
2023/01/29 10:10:56;;;;;;;;;;;;;;;;;;4407325;22;19932;-69
2023/01/29 10:13:22;;;;;;;;;;;;;;;;;;5017871;28;21112;-68
2023/01/29 10:22:02;;;;;;;1.50;1.50;;;;;;;;;;4207971;22;22287;-64
2023/01/29 10:24:35;;;;;;;1.98;1.88;;;;;;;;;;3957504;22;21242;-67
2023/01/29 10:27:01;;;;;;;1.92;1.83;;;;;;;;;;5028190;28;20455;-65
2023/01/29 10:29:27;;;;;;;1.95;1.85;;;;;;;;;;5027297;28;21071;-67
2023/01/29 10:31:54;;;;;;;1.80;1.70;;;;;;;;;;5029877;28;20475;-67
2023/01/29 10:34:26;;;;;;;1.40;1.40;;;;;;;;;;5026779;28;21536;-67
2023/01/29 10:36:52;;;;;;;1.50;1.50;;;;;;;;;;5028000;28;20416;-67
2023/01/29 10:39:25;;;;;;;1.10;1.10;;;;;;;;;;5029335;28;20466;-65
2023/01/29 10:41:57;;;;;;;1.38;1.38;;;;;;;;;;5029392;28;20491;-67
2023/01/29 10:44:23;;;;;;;;;;;;;;;;;;5027629;28;21029;-66
2023/01/29 10:46:53;;;;;;;0.63;0.63;;;;;;;;;;5033880;28;20439;-67
2023/01/29 10:49:19;;;;;;;;;;;;;;;;;;5025289;28;20518;-63
2023/01/29 10:51:44;;;;;;;;;;;;;;;;;;5029095;28;25079;-64
2023/01/29 10:54:23;;;;;;;1.00;1.00;;;;;;;;;;5028157;28;20414;-65
2023/01/29 10:57:01;;;;;;;1.80;1.70;;;;;;;;;;5030838;28;20416;-63
2023/01/29 10:59:33;;;;;;;0.93;0.93;;;;;;;;;;5030367;28;20452;-62
2023/01/29 11:02:02;;;;;;;1.30;1.30;;;;;;;;;;5046270;28;20400;-66
2023/01/29 11:04:27;;;;;;;1.08;1.08;;;;;;;;;;5032691;28;20510;-64
2023/01/29 11:06:53;;;;;;;1.10;1.10;;;;;;;;;;5057011;28;20428;-67
2023/01/29 11:09:27;;;;;;;1.08;1.08;;;;;;;;;;5055024;28;20412;-64
2023/01/29 11:12:03;;;;;;;1.00;1.00;;;;;;;;;;5032541;28;20409;-64
2023/01/29 11:14:38;;;;;;;1.17;1.17;;;;;;;;;;5041137;28;20413;-65
2023/01/29 11:17:04;;;;;;;1.20;1.20;;;;;;;;;;5047120;28;20416;-66
2023/01/29 11:19:36;;;;;;;1.20;1.20;;;;;;;;;;5051619;28;20435;-66
2023/01/29 11:22:03;;;;;;;1.20;1.20;;;;;;;;;;5049628;28;20584;-65
2023/01/29 11:24:29;;;;;;;1.10;1.10;;;;;;;;;;5043216;28;20455;-68
2023/01/29 11:26:56;;;;;;;1.00;1.00;;;;;;;;;;5014913;28;20469;-69
2023/01/29 11:29:33;;;;;;;1.40;1.40;;;;;;;;;;5020858;28;20424;-68
2023/01/29 11:31:59;;;;;;;1.60;1.60;;;;;;;;;;5016586;28;20452;-66
2023/01/29 11:34:31;;;;;;;1.20;1.20;;;;;;;;;;5007450;28;20535;-67
2023/01/29 11:36:58;;;;;;;1.15;1.15;;;;;;;;;;5015679;28;20413;-65
2023/01/29 11:39:24;;;;;;;1.20;1.20;;;;;;;;;;5016309;28;20433;-67
2023/01/29 11:41:56;;;;;;;1.10;1.10;;;;;;;;;;5005813;28;20488;-69
2023/01/29 11:44:26;;;;;;;0.90;0.90;;;;;;;;;;4981993;28;20809;-67
2023/01/29 11:46:52;;;;;;;1.13;1.13;;;;;;;;;;5021747;28;21018;-67
2023/01/29 11:49:21;;;;;;;1.30;1.30;;;;;;;;;;5011753;28;20405;-66
2023/01/29 11:51:50;;;;;;;1.30;1.30;;;;;;;;;;5009863;28;21080;-68
2023/01/29 11:54:16;;;;;;;1.20;1.20;;;;;;;;;;5010046;28;20776;-68
2023/01/29 11:56:43;;;;;;;1.80;1.70;;;;;;;;;;5011977;28;20417;-67
2023/01/29 11:59:28;;;;;;;1.13;1.13;;;;;;;;;;5013845;28;20409;-66
2023/01/29 12:01:53;;;;;;;1.30;1.30;;;;;;;;;;5013470;28;20433;-65
2023/01/29 12:04:20;;;;;;;1.20;1.20;;;;;;;;;;5031532;28;20456;-68
2023/01/29 12:06:47;;;;;;;1.10;1.10;;;;;;;;;;5018778;28;20406;-68
2023/01/29 12:09:18;;;;;;;1.30;1.30;;;;;;;;;;5015016;28;20404;-65
2023/01/29 12:11:44;;;;;;;1.10;1.10;;;;;;;;;;5017368;28;20397;-64
2023/01/29 12:14:29;;;;;;;1.40;1.40;;;;;;;;;;5018229;28;21017;-68
2023/01/29 12:16:59;;;;;;;1.60;1.60;;;;;;;;;;5021262;28;20842;-67
2023/01/29 12:19:27;;;;;;;1.95;1.85;;;;;;;;;;5017212;28;20439;-66
2023/01/29 12:21:59;;;;;;;1.95;1.85;;;;;;;;;;5018243;28;20828;-66
2023/01/29 12:24:35;;;;;;;1.90;1.80;;;;;;;;;;5015507;28;20417;-68
2023/01/29 12:27:05;;;;;;;2.00;1.90;;;;;;;;;;5021694;28;20892;-68
2023/01/29 12:29:33;;;;;;;1.65;1.65;;;;;;;;;;5019023;28;20420;-67
2023/01/29 12:32:02;;;;;;;1.98;1.88;;;;;;;;;;5011786;28;20405;-67
2023/01/29 12:34:40;;;;;;;1.85;1.75;;;;;;;;;;5018255;28;20815;-67
2023/01/29 12:37:12;;;;;;;1.90;1.80;;;;;;;;;;5017261;28;20415;-65
2023/01/29 12:39:38;;;;;;;1.50;1.50;;;;;;;;;;5013140;28;20504;-66
2023/01/29 12:42:08;;;;;;;1.70;1.70;;;;;;;;;;5016082;28;20432;-68
2023/01/29 12:44:47;;;;;;;1.55;1.55;;;;;;;;;;5013157;28;20397;-65
2023/01/29 12:47:18;;;;;;;1.40;1.40;;;;;;;;;;5028019;28;22015;-67
2023/01/29 12:49:44;;;;;;;1.48;1.48;;;;;;;;;;5020387;28;20409;-67
2023/01/29 12:52:12;;;;;;;1.90;1.80;;;;;;;;;;5020429;28;20418;-66
2023/01/29 12:54:49;;;;;;;1.60;1.60;;;;;;;;;;5006640;28;20409;-67
2023/01/29 12:57:20;;;;;;;1.52;1.52;;;;;;;;;;5014508;28;20428;-66
2023/01/29 12:59:47;;;;;;;1.80;1.70;;;;;;;;;;5017708;28;20416;-65
2023/01/29 13:02:23;;;;;;;1.10;1.10;;;;;;;;;;5010368;28;20896;-64
2023/01/29 13:04:53;;;;;;;1.27;1.27;;;;;;;;;;5008375;28;21210;-64
2023/01/29 13:07:22;;;;;;;1.00;1.00;;;;;;;;;;5019561;28;20413;-66
2023/01/29 13:09:49;;;;;;;1.00;1.00;;;;;;;;;;5015299;28;20421;-65
2023/01/29 13:12:16;;;;;;;1.00;1.00;;;;;;;;;;5006909;28;20409;-66
2023/01/29 13:14:47;;;;;;;0.90;0.90;;;;;;;;;;5003941;28;20457;-65
2023/01/29 13:17:22;;;;;;;1.20;1.20;;;;;;;;;;5010762;28;21298;-64
2023/01/29 13:19:52;;;;;;;1.17;1.17;;;;;;;;;;5013607;28;20453;-65
2023/01/29 13:22:25;;;;;;;1.10;1.10;;;;;;;;;;5005716;28;20417;-66
2023/01/29 13:24:51;;;;;;;1.20;1.20;;;;;;;;;;5002999;28;20988;-67
2023/01/29 13:27:27;;;;;;;1.20;1.20;;;;;;;;;;5009092;28;20412;-65
2023/01/29 13:29:54;;;;;;;1.23;1.23;;;;;;;;;;4940429;28;20421;-66
2023/01/29 13:32:24;;;;;;;1.20;1.20;;;;;;;;;;4995195;28;20457;-67
2023/01/29 13:34:50;;;;;;;1.30;1.30;;;;;;;;;;5019540;28;20416;-67
2023/01/29 13:37:27;;;;;;;1.23;1.23;;;;;;;;;;5021248;28;20767;-66
2023/01/29 13:39:53;;;;;;;1.20;1.20;;;;;;;;;;5029119;28;20401;-66
2023/01/29 13:42:31;;;;;;;1.30;1.30;;;;;;;;;;5016787;28;20465;-66
2023/01/29 13:44:58;;;;;;;1.00;1.00;;;;;;;;;;5002854;28;20409;-66
2023/01/29 13:47:27;;;;;;;1.15;1.15;;;;;;;;;;5006005;28;20463;-65
2023/01/29 13:50:00;;;;;;;1.10;1.10;;;;;;;;;;5013000;28;20417;-65
2023/01/29 13:52:43;;;;;;;1.10;1.10;;;;;;;;;;5020435;28;20445;-64
2023/01/29 13:55:22;;;;;;;1.10;1.10;;;;;;;;;;4993028;28;20518;-64
2023/01/29 13:57:49;;;;;;;1.20;1.20;;;;;;;;;;5003339;28;20501;-62
2023/01/29 14:00:23;;;;;;;1.50;1.50;;;;;;;;;;5003569;28;20746;-63
2023/01/29 14:02:55;;;;;;;1.30;1.30;;;;;;;;;;4999787;28;20496;-63
2023/01/29 14:05:30;;;;;;;1.20;1.20;;;;;;;;;;5000459;28;20435;-65
2023/01/29 14:07:58;;;;;;;1.20;1.20;;;;;;;;;;5004756;28;20478;-65
2023/01/29 14:10:24;;;;;;;1.08;1.08;;;;;;;;;;4996611;28;20409;-66
2023/01/29 14:12:50;;;;;;;1.10;1.10;;;;;;;;;;5005091;28;20417;-65
2023/01/29 14:15:17;;;;;;;0.73;0.73;;;;;;;;;;4958694;28;20411;-65
2023/01/29 14:18:04;;;;;;;0.70;0.70;;;;;;;;;;5018839;28;20512;-65
2023/01/29 14:20:31;;;;;;;0.80;0.80;;;;;;;;;;5016589;28;20404;-65
2023/01/29 14:22:58;;;;;;;0.80;0.80;;;;;;;;;;5029204;28;20409;-66
2023/01/29 14:25:27;;;;;;;0.80;0.80;;;;;;;;;;5026099;28;20427;-66
2023/01/29 14:27:53;;;;;;;0.60;0.60;;;;;;;;;;5022621;28;20815;-66
2023/01/29 14:30:21;;;;;;;0.70;0.70;;;;;;;;;;5021535;28;20444;-65
2023/01/29 14:32:47;;;;;;;0.70;0.70;;;;;;;;;;5003596;28;21202;-66
2023/01/29 14:35:18;;;;;;;0.60;0.60;;;;;;;;;;5036645;28;20405;-66
2023/01/29 14:37:45;;;;;;;0.63;0.63;;;;;;;;;;5031400;28;20832;-66
2023/01/29 14:40:11;;;;;;;0.70;0.70;;;;;;;;;;5036798;28;20496;-66
2023/01/29 14:42:45;;;;;;;0.70;0.70;;;;;;;;;;5033452;28;20503;-66
2023/01/29 14:45:30;;;;;;;0.80;0.80;;;;;;;;;;5025735;28;20407;-66
2023/01/29 14:47:57;;;;;;;0.80;0.80;;;;;;;;;;5027405;28;20444;-66
2023/01/29 14:50:30;;;;;;;0.90;0.90;;;;;;;;;;5024986;28;20404;-66
2023/01/29 14:52:59;;;;;;;0.50;0.50;;;;;;;;;;5026826;28;20904;-65
2023/01/29 14:55:35;;;;;;;0.60;0.60;;;;;;;;;;5036970;28;20997;-64
2023/01/29 14:58:01;;;;;;;0.70;0.70;;;;;;;;;;5028405;28;20416;-65
2023/01/29 15:00:28;;;;;;;0.70;0.70;;;;;;;;;;5023840;28;20511;-66
2023/01/29 15:02:56;;;;;;;0.80;0.80;;;;;;;;;;5033928;28;20464;-65
2023/01/29 15:05:23;;;;;;;0.70;0.70;;;;;;;;;;5033553;28;20402;-66
2023/01/29 15:07:56;;;;;;;0.68;0.68;;;;;;;;;;5038602;28;20417;-66
2023/01/29 15:10:41;;;;;;;0.70;0.70;;;;;;;;;;5037506;28;20746;-65
2023/01/29 15:13:07;;;;;;;0.90;0.90;;;;;;;;;;5030522;28;20428;-65
2023/01/29 15:15:37;;;;;;;0.70;0.70;;;;;;;;;;5039044;28;20409;-66
2023/01/29 15:18:23;;;;;;;0.75;0.75;;;;;;;;;;5041486;28;20423;-65
2023/01/29 15:20:49;;;;;;;0.80;0.80;;;;;;;;;;5037206;28;20502;-66
2023/01/29 15:23:28;;;;;;;0.67;0.67;;;;;;;;;;5033081;28;21002;-65
2023/01/29 15:25:55;;;;;;;0.80;0.80;;;;;;;;;;5037862;28;20409;-66
2023/01/29 15:28:21;;;;;;;0.70;0.70;;;;;;;;;;5039780;28;21237;-66
2023/01/29 15:30:50;;;;;;;0.80;0.80;;;;;;;;;;5031551;28;20417;-69
2023/01/29 15:33:16;;;;;;;0.60;0.60;;;;;;;;;;5037920;28;20421;-65
2023/01/29 15:35:42;;;;;;;0.90;0.90;;;;;;;;;;5039702;28;20750;-67
2023/01/29 15:38:18;;;;;;;0.95;0.95;;;;;;;;;;5035200;28;20413;-66
2023/01/29 15:40:51;;;;;;;0.85;0.85;;;;;;;;;;5023598;28;20413;-66
2023/01/29 15:43:21;;;;;;;0.80;0.80;;;;;;;;;;5030400;28;20420;-65
2023/01/29 15:45:47;;;;;;;0.98;0.98;;;;;;;;;;5026590;28;21004;-65
2023/01/29 15:48:14;;;;;;;0.80;0.80;;;;;;;;;;5031201;28;20992;-66
2023/01/29 15:50:40;;;;;;;0.70;0.70;;;;;;;;;;5030127;28;20410;-66
2023/01/29 15:53:06;;;;;;;0.80;0.80;;;;;;;;;;5030256;28;20417;-66
2023/01/29 15:55:32;;;;;;;0.82;0.82;;;;;;;;;;5027690;28;20413;-67
2023/01/29 15:57:58;;;;;;;0.60;0.60;;;;;;;;;;5029223;28;20432;-67
2023/01/29 16:00:26;;;;;;;0.80;0.80;;;;;;;;;;5027728;28;20424;-67
2023/01/29 16:02:52;;;;;;;0.80;0.80;;;;;;;;;;5036792;28;20417;-66
2023/01/29 16:05:22;;;;;;;0.80;0.80;;;;;;;;;;5034270;28;21394;-66
2023/01/29 16:07:48;;;;;;;0.80;0.80;;;;;;;;;;5032753;28;20788;-67
2023/01/29 16:10:16;;;;;;;0.80;0.80;;;;;;;;;;5030109;28;20832;-66
2023/01/29 16:12:42;;;;;;;0.80;0.80;;;;;;;;;;5049642;28;20405;-66
2023/01/29 16:15:09;;;;;;;0.70;0.70;;;;;;;;;;5030659;28;20474;-66
2023/01/29 16:17:39;;;;;;;0.65;0.65;;;;;;;;;;5031875;28;20780;-67
2023/01/29 16:20:06;;;;;;;0.88;0.88;;;;;;;;;;5030640;28;20517;-67
2023/01/29 16:22:33;;;;;;;0.70;0.70;;;;;;;;;;5035688;28;20413;-66
2023/01/29 16:25:06;;;;;;;0.70;0.70;;;;;;;;;;5044043;28;20425;-66
2023/01/29 16:27:32;;;;;;;0.80;0.80;;;;;;;;;;5019689;28;20413;-66
2023/01/29 16:30:00;;;;;;;0.65;0.65;;;;;;;;;;5027140;28;20437;-66
2023/01/29 16:32:26;;;;;;;0.77;0.77;;;;;;;;;;5027792;28;20420;-67
2023/01/29 16:34:54;;;;;;;0.65;0.65;;;;;;;;;;5034513;28;20796;-66
2023/01/29 16:37:22;;;;;;;0.60;0.60;;;;;;;;;;5016097;28;20409;-66
2023/01/29 16:39:48;;;;;;;0.80;0.80;;;;;;;;;;5019806;28;20520;-66
2023/01/29 16:42:16;;;;;;;0.60;0.60;;;;;;;;;;5009203;28;20500;-64